createdAt,value
2023-01-10T00:00:10.783Z,1.83
2023-01-10T00:02:38.719Z,1.20
2023-01-10T00:05:08.051Z,1.08
2023-01-10T00:07:36.622Z,0.77
2023-01-10T00:10:04.993Z,0.80
2023-01-10T00:12:50.172Z,0.80
2023-01-10T00:15:19.360Z,0.80
2023-01-10T00:17:47.236Z,1.10
2023-01-10T00:20:15.166Z,0.90
2023-01-10T00:22:43.076Z,1.15
2023-01-10T00:25:10.970Z,0.90
2023-01-10T00:27:39.350Z,0.95
2023-01-10T00:30:14.099Z,1.20
2023-01-10T00:32:44.744Z,1.10
2023-01-10T00:35:13.662Z,1.00
2023-01-10T00:37:41.976Z,0.95
2023-01-10T00:40:12.839Z,1.30
2023-01-10T00:42:58.058Z,1.20
2023-01-10T00:45:27.103Z,1.10
2023-01-10T00:47:56.371Z,1.20
2023-01-10T00:50:24.258Z,1.30
2023-01-10T00:52:52.119Z,1.40
2023-01-10T00:55:19.954Z,1.50
2023-01-10T00:57:47.870Z,1.50
2023-01-10T01:00:16.374Z,1.80
2023-01-10T01:02:44.279Z,1.50
2023-01-10T01:05:13.492Z,1.30
2023-01-10T01:07:41.358Z,1.60
2023-01-10T01:10:28.876Z,2.00
2023-01-10T01:12:58.756Z,1.63
2023-01-10T01:15:28.383Z,1.38
2023-01-10T01:17:56.484Z,1.40
2023-01-10T01:20:25.842Z,1.77
2023-01-10T01:22:53.776Z,1.85
2023-01-10T01:25:21.862Z,2.10
2023-01-10T01:27:49.742Z,1.60
2023-01-10T01:30:17.880Z,1.95
2023-01-10T01:32:45.785Z,1.92
2023-01-10T01:35:15.865Z,1.35
2023-01-10T01:37:45.689Z,1.60
2023-01-10T01:40:16.088Z,1.73
2023-01-10T01:42:44.924Z,1.40
2023-01-10T01:45:37.661Z,1.90
2023-01-10T01:48:18.880Z,1.50
2023-01-10T01:50:54.385Z,1.40
2023-01-10T01:53:28.477Z,1.13
2023-01-10T01:55:58.920Z,1.40
2023-01-10T01:58:31.325Z,1.20
2023-01-10T02:00:59.568Z,1.23
2023-01-10T02:03:28.482Z,1.10
2023-01-10T02:05:56.785Z,1.27
2023-01-10T02:08:26.017Z,1.10
2023-01-10T02:10:59.335Z,1.00
2023-01-10T02:13:29.009Z,0.80
2023-01-10T02:15:56.960Z,1.33
2023-01-10T02:18:25.553Z,1.38
2023-01-10T02:21:08.668Z,0.90
2023-01-10T02:24:16.322Z,1.00
2023-01-10T02:27:12.152Z,0.93
2023-01-10T02:30:24.635Z,0.82
2023-01-10T02:33:05.437Z,1.00
2023-01-10T02:35:45.251Z,0.80
2023-01-10T02:38:24.375Z,0.80
2023-01-10T02:41:01.365Z,0.90
2023-01-10T02:43:35.244Z,0.80
2023-01-10T02:46:07.341Z,0.88
2023-01-10T02:48:36.636Z,0.85
2023-01-10T02:51:10.676Z,0.60
2023-01-10T02:53:42.474Z,0.75
2023-01-10T02:56:54.375Z,0.85
2023-01-10T02:59:51.959Z,1.20
2023-01-10T03:02:29.666Z,0.77
2023-01-10T03:05:06.022Z,2.45
2023-01-10T03:07:38.539Z,1.17
2023-01-10T03:10:09.896Z,1.10
2023-01-10T03:12:44.136Z,1.30
2023-01-10T03:15:15.542Z,1.40
2023-01-10T03:17:46.213Z,1.38
2023-01-10T03:20:16.676Z,1.40
2023-01-10T03:22:45.727Z,1.85
2023-01-10T03:25:16.306Z,1.83
2023-01-10T03:27:52.750Z,1.52
2023-01-10T03:30:27.580Z,1.90
2023-01-10T03:32:57.935Z,1.80
2023-01-10T03:35:32.404Z,1.80
2023-01-10T03:38:07.675Z,2.00
2023-01-10T03:40:43.747Z,1.92
2023-01-10T03:43:36.340Z,1.80
2023-01-10T03:46:08.679Z,1.25
2023-01-10T03:48:39.780Z,2.13
2023-01-10T03:51:10.017Z,1.50
2023-01-10T03:53:40.241Z,1.35
2023-01-10T03:56:08.754Z,1.60
2023-01-10T03:58:36.608Z,3.17
2023-01-10T04:01:04.541Z,1.45
2023-01-10T04:03:32.435Z,1.25
2023-01-10T04:06:00.301Z,1.40
2023-01-10T04:08:29.535Z,1.30
2023-01-10T04:10:57.491Z,1.38
2023-01-10T04:13:25.356Z,1.00
2023-01-10T04:15:53.323Z,1.33
2023-01-10T04:18:21.314Z,1.40
2023-01-10T04:20:50.660Z,1.02
2023-01-10T04:23:19.958Z,1.10
2023-01-10T04:25:49.460Z,1.20
2023-01-10T04:28:17.319Z,0.90
2023-01-10T04:30:45.192Z,0.70
2023-01-10T04:33:13.676Z,0.93
2023-01-10T04:35:41.570Z,1.10
2023-01-10T04:38:09.490Z,0.90
2023-01-10T04:40:37.376Z,0.95
2023-01-10T04:43:06.568Z,1.10
2023-01-10T04:45:34.499Z,0.90
2023-01-10T04:48:02.462Z,1.10
2023-01-10T04:50:30.369Z,1.10
2023-01-10T04:52:58.236Z,0.90
2023-01-10T04:55:26.157Z,0.90
2023-01-10T04:57:54.099Z,1.80
2023-01-10T05:00:23.405Z,1.73
2023-01-10T05:02:56.935Z,2.88
2023-01-10T05:05:25.796Z,2.05
2023-01-10T05:07:53.647Z,2.38
2023-01-10T05:10:21.611Z,2.95
2023-01-10T05:12:49.500Z,2.75
2023-01-10T05:15:17.507Z,4.25
2023-01-10T05:17:46.739Z,3.17
2023-01-10T05:20:14.684Z,3.90
2023-01-10T05:22:42.592Z,3.42
2023-01-10T05:25:10.995Z,2.70
2023-01-10T05:27:42.008Z,2.72
2023-01-10T05:30:12.500Z,3.00
2023-01-10T05:32:40.602Z,3.88
2023-01-10T05:35:10.402Z,3.55
2023-01-10T05:37:38.360Z,3.28
2023-01-10T05:40:07.589Z,3.00
2023-01-10T05:42:35.462Z,3.10
2023-01-10T05:45:03.391Z,3.80
2023-01-10T05:47:31.598Z,4.43
2023-01-10T05:49:59.459Z,5.65
2023-01-10T05:52:28.708Z,5.47
2023-01-10T05:54:56.590Z,3.03
2023-01-10T05:57:24.636Z,3.78
2023-01-10T05:59:52.515Z,2.90
2023-01-10T06:02:20.472Z,3.72
2023-01-10T06:04:48.364Z,2.67
2023-01-10T06:07:16.353Z,2.63
2023-01-10T06:09:46.285Z,3.75
2023-01-10T06:12:14.653Z,2.83
2023-01-10T06:14:42.508Z,2.85
2023-01-10T06:17:10.824Z,4.22
2023-01-10T06:19:38.866Z,3.92
2023-01-10T06:22:06.942Z,3.80
2023-01-10T06:24:34.809Z,3.83
2023-01-10T06:27:04.121Z,3.17
2023-01-10T06:29:32.997Z,6.03
2023-01-10T06:32:01.384Z,3.17
2023-01-10T06:34:29.304Z,2.63
2023-01-10T06:36:57.181Z,3.45
2023-01-10T06:39:25.067Z,2.75
2023-01-10T06:41:52.963Z,3.17
2023-01-10T06:44:22.184Z,2.80
2023-01-10T06:46:50.032Z,3.00
2023-01-10T06:49:17.973Z,3.75
2023-01-10T06:51:45.910Z,5.22
2023-01-10T06:54:13.767Z,2.88
2023-01-10T06:56:41.633Z,2.65
2023-01-10T06:59:10.394Z,3.35
2023-01-10T07:01:39.894Z,2.55
2023-01-10T07:04:07.901Z,2.88
2023-01-10T07:06:37.779Z,2.40
2023-01-10T07:09:06.554Z,2.40
2023-01-10T07:11:34.564Z,4.05
2023-01-10T07:14:03.028Z,3.03
2023-01-10T07:16:30.922Z,2.17
2023-01-10T07:19:01.089Z,2.20
2023-01-10T07:21:29.021Z,3.28
2023-01-10T07:23:56.901Z,3.00
2023-01-10T07:26:24.826Z,3.45
2023-01-10T07:28:52.709Z,3.05
2023-01-10T07:31:23.718Z,4.25
2023-01-10T07:33:53.172Z,3.53
2023-01-10T07:36:22.560Z,3.05
2023-01-10T07:38:50.471Z,3.28
2023-01-10T07:41:18.392Z,2.95
2023-01-10T07:43:46.260Z,3.15
2023-01-10T07:46:14.423Z,2.60
2023-01-10T07:48:43.002Z,3.20
2023-01-10T07:51:11.116Z,2.90
2023-01-10T07:53:40.331Z,3.75
2023-01-10T07:56:08.678Z,4.22
2023-01-10T07:58:36.911Z,3.42
2023-01-10T08:01:06.460Z,2.78
2023-01-10T08:03:35.489Z,3.70
2023-01-10T08:06:05.073Z,2.70
2023-01-10T08:08:34.478Z,3.15
2023-01-10T08:11:03.760Z,3.10
2023-01-10T08:13:32.729Z,3.30
2023-01-10T08:16:01.447Z,3.22
2023-01-10T08:18:29.345Z,3.72
2023-01-10T08:20:58.001Z,2.80
2023-01-10T08:23:25.999Z,3.28
2023-01-10T08:25:54.324Z,5.28
2023-01-10T08:28:23.532Z,5.38
2023-01-10T08:30:55.533Z,4.70
2023-01-10T08:33:24.408Z,4.45
2023-01-10T08:35:52.885Z,3.63
2023-01-10T08:38:20.763Z,3.22
2023-01-10T08:40:48.644Z,2.78
2023-01-10T08:43:16.514Z,2.50
2023-01-10T08:45:45.783Z,3.47
2023-01-10T08:48:14.185Z,3.17
2023-01-10T08:50:42.248Z,2.83
2023-01-10T08:53:10.772Z,2.72
2023-01-10T08:55:38.963Z,3.13
2023-01-10T08:58:06.811Z,3.55
2023-01-10T09:00:34.729Z,3.55
2023-01-10T09:03:06.433Z,3.47
2023-01-10T09:05:34.344Z,4.50
2023-01-10T09:08:03.612Z,3.30
2023-01-10T09:10:31.747Z,4.38
2023-01-10T09:13:01.764Z,3.50
2023-01-10T09:15:32.415Z,3.28
2023-01-10T09:18:04.699Z,3.70
2023-01-10T09:20:34.784Z,3.53
2023-01-10T09:23:06.651Z,3.50
2023-01-10T09:25:35.223Z,3.67
2023-01-10T09:28:04.513Z,3.25
2023-01-10T09:30:33.160Z,3.20
2023-01-10T09:33:01.058Z,3.28
2023-01-10T09:35:31.825Z,3.47
2023-01-10T09:38:02.512Z,3.75
2023-01-10T09:40:44.655Z,3.55
2023-01-10T09:43:20.312Z,4.00
2023-01-10T09:45:57.102Z,3.42
2023-01-10T09:48:34.604Z,3.67
2023-01-10T09:51:19.911Z,4.13
2023-01-10T09:53:53.587Z,2.97
2023-01-10T09:56:21.975Z,3.60
2023-01-10T09:58:50.733Z,2.97
2023-01-10T10:01:23.675Z,4.22
2023-01-10T10:03:59.621Z,2.45
2023-01-10T10:06:28.901Z,2.60
2023-01-10T10:08:58.599Z,2.45
2023-01-10T10:11:45.463Z,2.63
2023-01-10T10:14:26.845Z,2.85
2023-01-10T10:17:15.390Z,2.65
2023-01-10T10:20:00.683Z,2.35
2023-01-10T10:22:37.061Z,2.72
2023-01-10T10:25:19.403Z,2.42
2023-01-10T10:28:02.335Z,2.13
2023-01-10T10:30:42.429Z,2.67
2023-01-10T10:33:28.717Z,1.80
2023-01-10T10:36:02.043Z,2.45
2023-01-10T10:38:35.980Z,1.77
2023-01-10T10:41:04.322Z,2.25
2023-01-10T10:43:36.420Z,2.22
2023-01-10T10:46:09.043Z,2.35
2023-01-10T10:48:42.411Z,2.20
2023-01-10T10:51:15.113Z,1.98
2023-01-10T10:53:44.390Z,2.53
2023-01-10T10:56:15.852Z,2.42
2023-01-10T10:58:47.064Z,2.95
2023-01-10T11:01:16.179Z,3.97
2023-01-10T11:03:48.231Z,2.00
2023-01-10T11:06:19.242Z,2.20
2023-01-10T11:08:53.132Z,2.42
2023-01-10T11:11:25.530Z,5.00
2023-01-10T11:13:56.435Z,2.65
2023-01-10T11:16:30.635Z,3.30
2023-01-10T11:19:18.414Z,2.63
2023-01-10T11:21:53.500Z,2.90
2023-01-10T11:24:35.100Z,2.28
2023-01-10T11:27:05.753Z,2.22
2023-01-10T11:29:40.012Z,2.00
2023-01-10T11:32:15.531Z,2.28
2023-01-10T11:34:49.755Z,3.08
2023-01-10T11:37:25.095Z,3.22
2023-01-10T11:40:15.799Z,2.17
2023-01-10T11:42:43.909Z,2.25
2023-01-10T11:45:27.431Z,2.78
2023-01-10T11:47:57.940Z,1.77
2023-01-10T11:50:28.505Z,2.58
2023-01-10T11:52:57.367Z,2.00
2023-01-10T11:55:29.151Z,1.90
2023-01-10T11:58:02.866Z,2.08
2023-01-10T12:00:41.775Z,1.90
2023-01-10T12:03:18.974Z,1.90
2023-01-10T12:05:55.687Z,2.15
2023-01-10T12:08:29.759Z,1.30
2023-01-10T12:11:02.738Z,1.85
2023-01-10T12:13:31.975Z,1.90
2023-01-10T12:16:22.028Z,1.85
2023-01-10T12:18:51.360Z,1.60
2023-01-10T12:21:26.615Z,1.85
2023-01-10T12:23:56.017Z,2.40
2023-01-10T12:26:27.603Z,2.25
2023-01-10T12:28:59.906Z,2.03
2023-01-10T12:31:31.571Z,1.70
2023-01-10T12:34:08.564Z,2.15
2023-01-10T12:36:44.629Z,2.25
2023-01-10T12:39:20.634Z,2.28
2023-01-10T12:42:17.779Z,2.58
2023-01-10T12:44:48.599Z,3.58
2023-01-10T12:47:23.517Z,2.03
2023-01-10T12:49:58.195Z,1.40
2023-01-10T12:52:32.847Z,1.55
2023-01-10T12:55:03.137Z,1.38
2023-01-10T12:57:37.025Z,1.70
2023-01-10T13:00:09.031Z,1.80
2023-01-10T13:02:43.851Z,1.98
2023-01-10T13:05:18.767Z,1.23
2023-01-10T13:07:48.339Z,1.95
2023-01-10T13:10:18.502Z,2.22
2023-01-10T13:12:54.969Z,1.50
2023-01-10T13:15:27.636Z,1.65
2023-01-10T13:18:01.609Z,1.95
2023-01-10T13:20:38.078Z,2.67
2023-01-10T13:23:27.192Z,2.47
2023-01-10T13:25:57.680Z,1.80
2023-01-10T13:28:29.727Z,2.22
2023-01-10T13:31:01.103Z,1.50
2023-01-10T13:33:30.995Z,2.25
2023-01-10T13:36:09.022Z,2.63
2023-01-10T13:38:45.191Z,2.30
2023-01-10T13:41:33.174Z,2.88
2023-01-10T13:44:05.292Z,4.97
2023-01-10T13:46:47.446Z,1.73
2023-01-10T13:49:48.386Z,2.38
2023-01-10T13:52:31.280Z,1.70
2023-01-10T13:55:00.621Z,2.20
2023-01-10T13:57:51.417Z,1.80
2023-01-10T14:01:05.219Z,2.17
2023-01-10T14:03:52.137Z,1.77
2023-01-10T14:06:41.883Z,1.42
2023-01-10T14:09:37.428Z,2.00
2023-01-10T14:12:08.727Z,1.95
2023-01-10T14:14:39.326Z,2.25
2023-01-10T14:17:15.960Z,2.00
2023-01-10T14:19:46.143Z,1.58
2023-01-10T14:22:27.560Z,1.77
2023-01-10T14:24:56.004Z,2.80
2023-01-10T14:27:24.414Z,1.92
2023-01-10T14:29:56.788Z,1.52
2023-01-10T14:32:34.855Z,2.05
2023-01-10T14:37:37.494Z,2.70
2023-01-10T14:40:12.066Z,1.92
2023-01-10T14:42:40.283Z,2.30
2023-01-10T14:45:19.994Z,2.20
2023-01-10T14:47:49.667Z,2.00
2023-01-10T14:50:30.039Z,2.35
2023-01-10T14:52:58.185Z,2.65
2023-01-10T14:55:26.315Z,1.70
2023-01-10T14:57:55.935Z,2.03
2023-01-10T15:00:28.209Z,1.67
2023-01-10T15:02:59.001Z,2.38
2023-01-10T15:05:28.375Z,2.40
2023-01-10T15:07:57.400Z,1.75
2023-01-10T15:10:28.435Z,1.90
2023-01-10T15:13:03.820Z,2.05
2023-01-10T15:15:34.295Z,2.78
2023-01-10T15:18:08.215Z,2.10
2023-01-10T15:20:36.255Z,2.67
2023-01-10T15:23:04.788Z,3.35
2023-01-10T15:25:38.002Z,3.05
2023-01-10T15:28:07.129Z,2.70
2023-01-10T15:30:38.063Z,2.58
2023-01-10T15:33:14.104Z,2.22
2023-01-10T15:35:43.675Z,2.45
2023-01-10T15:38:16.728Z,3.08
2023-01-10T15:40:45.256Z,1.48
2023-01-10T15:43:23.600Z,2.10
2023-01-10T15:45:53.159Z,1.65
2023-01-10T15:48:32.665Z,2.28
2023-01-10T15:51:03.818Z,2.13
2023-01-10T15:53:51.738Z,2.30
2023-01-10T15:56:22.817Z,2.27
2023-01-10T15:58:50.998Z,2.22
2023-01-10T16:01:19.146Z,2.22
2023-01-10T16:03:51.085Z,3.60
2023-01-10T16:06:23.638Z,1.83
2023-01-10T16:08:53.942Z,3.70
2023-01-10T16:11:38.956Z,1.80
2023-01-10T16:14:06.878Z,2.17
2023-01-10T16:16:35.047Z,2.78
2023-01-10T16:19:04.371Z,2.53
2023-01-10T16:21:36.983Z,2.15
2023-01-10T16:24:06.135Z,2.45
2023-01-10T16:26:34.713Z,2.47
2023-01-10T16:29:02.844Z,1.77
2023-01-10T16:31:30.779Z,2.38
2023-01-10T16:33:58.685Z,2.45
2023-01-10T16:36:27.868Z,2.97
2023-01-10T16:38:55.871Z,3.67
2023-01-10T16:41:41.060Z,2.92
2023-01-10T16:44:09.299Z,2.20
2023-01-10T16:46:37.563Z,3.28
2023-01-10T16:49:06.585Z,2.40
2023-01-10T16:51:40.314Z,3.08
2023-01-10T16:54:10.881Z,1.88
2023-01-10T16:56:38.737Z,2.20
2023-01-10T16:59:07.557Z,2.10
2023-01-10T17:01:40.385Z,2.25
2023-01-10T17:04:09.664Z,2.08
2023-01-10T17:06:40.534Z,2.40
2023-01-10T17:09:09.091Z,3.58
2023-01-10T17:11:41.486Z,2.38
2023-01-10T17:14:12.973Z,3.13
2023-01-10T17:16:40.871Z,2.92
2023-01-10T17:19:09.651Z,2.42
2023-01-10T17:21:38.841Z,2.28
2023-01-10T17:24:09.558Z,2.42
2023-01-10T17:26:37.569Z,2.10
2023-01-10T17:29:05.438Z,2.53
2023-01-10T17:31:33.373Z,2.83
2023-01-10T17:34:01.380Z,2.53
2023-01-10T17:36:31.205Z,2.80
2023-01-10T17:39:00.916Z,1.98
2023-01-10T17:41:28.876Z,2.17
2023-01-10T17:43:56.777Z,2.85
2023-01-10T17:46:24.780Z,3.38
2023-01-10T17:48:52.666Z,3.00
2023-01-10T17:51:22.543Z,2.38
2023-01-10T17:53:50.404Z,3.05
2023-01-10T17:56:19.604Z,2.90
2023-01-10T17:58:47.474Z,2.63
2023-01-10T18:01:21.755Z,3.15
2023-01-10T18:03:51.803Z,3.88
2023-01-10T18:06:24.049Z,3.70
2023-01-10T18:08:52.602Z,3.75
2023-01-10T18:11:22.696Z,3.38
2023-01-10T18:13:50.610Z,3.80
2023-01-10T18:16:18.513Z,3.83
2023-01-10T18:18:46.434Z,3.33
2023-01-10T18:21:16.092Z,3.28
2023-01-10T18:23:43.985Z,2.88
2023-01-10T18:26:13.800Z,3.33
2023-01-10T18:28:44.125Z,3.60
2023-01-10T18:31:13.822Z,3.05
2023-01-10T18:33:41.767Z,3.60
2023-01-10T18:36:15.125Z,3.83
2023-01-10T18:38:43.221Z,3.92
2023-01-10T18:41:11.077Z,4.28
2023-01-10T18:43:39.045Z,3.75
2023-01-10T18:46:10.945Z,3.53
2023-01-10T18:48:38.946Z,3.13
2023-01-10T18:51:08.944Z,3.90
2023-01-10T18:53:36.840Z,3.08
2023-01-10T18:56:06.350Z,3.33
2023-01-10T18:58:36.522Z,3.03
2023-01-10T19:01:11.574Z,3.85
2023-01-10T19:03:40.333Z,3.58
2023-01-10T19:06:11.430Z,3.40
2023-01-10T19:08:39.604Z,2.83
2023-01-10T19:11:16.443Z,4.07
2023-01-10T19:13:44.758Z,2.45
2023-01-10T19:16:15.613Z,2.90
2023-01-10T19:18:44.738Z,2.33
2023-01-10T19:21:15.825Z,2.72
2023-01-10T19:23:44.155Z,2.80
2023-01-10T19:26:12.397Z,2.58
2023-01-10T19:28:40.600Z,3.28
2023-01-10T19:31:08.535Z,3.85
2023-01-10T19:33:38.406Z,2.45
2023-01-10T19:36:08.011Z,4.05
2023-01-10T19:38:36.298Z,2.88
2023-01-10T19:41:04.675Z,2.47
2023-01-10T19:43:33.756Z,2.78
2023-01-10T19:46:01.864Z,2.40
2023-01-10T19:48:29.766Z,2.40
2023-01-10T19:51:05.819Z,2.53
2023-01-10T19:53:35.589Z,2.75
2023-01-10T19:56:07.241Z,2.60
2023-01-10T19:58:35.314Z,2.20
2023-01-10T20:01:09.256Z,4.85
2023-01-10T20:03:37.928Z,2.53
2023-01-10T20:06:09.096Z,2.10
2023-01-10T20:08:37.301Z,2.20
2023-01-10T20:11:06.460Z,2.40
2023-01-10T20:13:37.057Z,2.50
2023-01-10T20:16:05.185Z,2.42
2023-01-10T20:18:33.627Z,2.40
2023-01-10T20:21:06.166Z,3.00
2023-01-10T20:23:36.110Z,2.20
2023-01-10T20:26:06.797Z,2.08
2023-01-10T20:28:35.099Z,3.05
2023-01-10T20:31:04.032Z,2.42
2023-01-10T20:33:34.507Z,2.03
2023-01-10T20:36:04.582Z,2.80
2023-01-10T20:38:36.078Z,2.17
2023-01-10T20:41:06.711Z,2.20
2023-01-10T20:43:34.686Z,1.67
2023-01-10T20:46:06.208Z,2.70
2023-01-10T20:48:34.495Z,2.10
2023-01-10T20:51:02.488Z,3.78
2023-01-10T20:53:31.270Z,1.70
2023-01-10T20:56:04.221Z,2.00
2023-01-10T20:58:32.946Z,2.42
2023-01-10T21:01:00.855Z,1.95
2023-01-10T21:03:28.850Z,2.45
2023-01-10T21:05:58.427Z,1.65
2023-01-10T21:08:29.582Z,2.05
2023-01-10T21:10:58.584Z,2.03
2023-01-10T21:13:28.285Z,1.85
2023-01-10T21:15:57.765Z,2.97
2023-01-10T21:18:27.573Z,2.10
2023-01-10T21:20:56.947Z,2.00
2023-01-10T21:23:26.224Z,2.55
2023-01-10T21:25:54.927Z,1.90
2023-01-10T21:28:22.841Z,2.38
2023-01-10T21:30:54.221Z,2.38
2023-01-10T21:33:22.275Z,2.33
2023-01-10T21:35:53.579Z,1.90
2023-01-10T21:38:22.052Z,2.15
2023-01-10T21:40:49.947Z,2.65
2023-01-10T21:43:17.823Z,2.03
2023-01-10T21:45:45.816Z,1.75
2023-01-10T21:48:15.451Z,2.17
2023-01-10T21:50:44.735Z,2.28
2023-01-10T21:53:12.684Z,1.60
2023-01-10T21:55:40.566Z,1.85
2023-01-10T21:58:08.408Z,1.83
2023-01-10T22:00:36.395Z,1.70
2023-01-10T22:03:04.396Z,1.90
2023-01-10T22:05:33.990Z,1.73
2023-01-10T22:08:01.893Z,2.00
2023-01-10T22:10:30.188Z,1.80
2023-01-10T22:12:58.063Z,2.25
2023-01-10T22:15:27.031Z,1.63
2023-01-10T22:17:54.948Z,2.00
2023-01-10T22:20:22.869Z,1.40
2023-01-10T22:22:52.061Z,1.77
2023-01-10T22:25:19.948Z,1.48
2023-01-10T22:27:47.849Z,1.80
2023-01-10T22:30:15.948Z,1.92
2023-01-10T22:32:43.838Z,1.10
2023-01-10T22:35:13.774Z,1.98
2023-01-10T22:37:41.785Z,1.95
2023-01-10T22:40:12.550Z,1.75
2023-01-10T22:42:40.449Z,1.90
2023-01-10T22:45:09.235Z,1.40
2023-01-10T22:47:38.351Z,1.33
2023-01-10T22:50:07.181Z,1.60
2023-01-10T22:52:35.033Z,1.67
2023-01-10T22:55:03.142Z,1.40
2023-01-10T22:57:33.181Z,2.25
2023-01-10T23:00:01.380Z,1.80
2023-01-10T23:02:29.409Z,1.70
2023-01-10T23:04:57.335Z,3.38
2023-01-10T23:07:25.257Z,1.80
2023-01-10T23:09:53.124Z,1.50
2023-01-10T23:12:20.970Z,1.50
2023-01-10T23:14:50.170Z,1.90
2023-01-10T23:17:18.006Z,2.00
2023-01-10T23:19:45.870Z,1.73
2023-01-10T23:22:13.703Z,1.35
2023-01-10T23:24:41.612Z,2.28
2023-01-10T23:27:09.466Z,1.48
2023-01-10T23:29:37.324Z,1.65
2023-01-10T23:32:06.708Z,1.45
2023-01-10T23:34:34.741Z,2.00
2023-01-10T23:37:02.608Z,1.50
2023-01-10T23:39:30.502Z,1.50
2023-01-10T23:41:58.412Z,1.85
2023-01-10T23:44:28.724Z,2.50
2023-01-10T23:46:57.052Z,2.15
2023-01-10T23:49:26.294Z,2.33
2023-01-10T23:51:54.181Z,1.52
2023-01-10T23:54:22.113Z,1.50
2023-01-10T23:56:52.193Z,1.40
2023-01-10T23:59:20.327Z,1.50
